CheckWX is a tool to help pilots better visualize weather data.  It is not intended as a substitute for an official pre-flight weather briefing.

05:10:08 UTC

KEDN METAR
Enterprise Municipal Airport
Enterprise, Alabama, USA
Current

15 mins ago

KEDN 080455Z AUTO 08003KT 10SM SCT031 SCT037 OVC043 13/09 A3020 RMK AO2 T01270093 401760100
Observed
Dec-8 @ 04:55 UTC
Wind
  • 080° at 3 KTS
Visibility
10 SM
Flight Rules
VFR
Cloud Levels
  • Scattered at 3,100' AGL
  • Scattered at 3,700' AGL
  • Overcast at 4,300' AGL
Temperature
13°C / 55°F
Dewpoint
C / 48°F
Humidity
77%
Altimeter
30.2" Hg
Pressure
1022.72 hPa
Previous

35 mins ago

KEDN 080435Z AUTO 09004KT 10SM OVC039 13/10 A3020 RMK AO2 T01280097
Observed
Dec-8 @ 04:35 UTC
Wind
  • 090° at 4 KTS
Visibility
10 SM
Flight Rules
VFR
Cloud Levels
  • Overcast at 3,900' AGL
Temperature
13°C / 55°F
Dewpoint
10°C / 50°F
Humidity
82%
Altimeter
30.2" Hg
Pressure
1022.72 hPa
Previous

55 mins ago

KEDN 080415Z AUTO 00000KT 10SM BKN039 BKN046 13/10 A3021 RMK AO2 T01270100
Observed
Dec-8 @ 04:15 UTC
Visibility
10 SM
Flight Rules
VFR
Cloud Levels
  • Broken at 3,900' AGL
  • Broken at 4,600' AGL
Temperature
13°C / 55°F
Dewpoint
10°C / 50°F
Humidity
82%
Altimeter
30.21" Hg
Pressure
1023.02 hPa